createdAt,value
2023-03-18T00:01:00.017Z,100455.06
2023-03-18T00:03:26.528Z,100464.88
2023-03-18T00:05:52.994Z,100451.56
2023-03-18T00:08:19.407Z,100448.81
2023-03-18T00:10:45.816Z,100447.06
2023-03-18T00:13:12.232Z,100454.19
2023-03-18T00:15:38.709Z,100456.81
2023-03-18T00:18:05.164Z,100454.09
2023-03-18T00:20:31.766Z,100446.94
2023-03-18T00:22:58.306Z,100453.88
2023-03-18T00:25:24.712Z,100455.63
2023-03-18T00:27:51.156Z,100454.59
2023-03-18T00:30:17.689Z,100450.97
2023-03-18T00:32:44.143Z,100452.63
2023-03-18T00:35:10.668Z,100459.44
2023-03-18T00:37:37.098Z,100458.50
2023-03-18T00:40:06.880Z,100450.41
2023-03-18T00:42:38.264Z,100453.03
2023-03-18T00:45:09.105Z,100454.75
2023-03-18T00:47:35.529Z,100448.56
2023-03-18T00:50:02.053Z,100448.50
2023-03-18T00:52:30.075Z,100447.56
2023-03-18T00:54:57.993Z,100450.25
2023-03-18T00:57:24.430Z,100452.97
2023-03-18T00:59:50.927Z,100457.44
2023-03-18T01:02:17.409Z,100460.91
2023-03-18T01:04:43.918Z,100461.75
2023-03-18T01:07:10.330Z,100462.59
2023-03-18T01:09:36.862Z,100463.47
2023-03-18T01:12:03.353Z,100462.56
2023-03-18T01:14:29.776Z,100466.97
2023-03-18T01:16:56.194Z,100458.88
2023-03-18T01:19:22.606Z,100460.63
2023-03-18T01:21:49.026Z,100459.69
2023-03-18T01:24:15.446Z,100460.56
2023-03-18T01:26:41.858Z,100457.88
2023-03-18T01:29:08.291Z,100462.25
2023-03-18T01:31:34.827Z,100455.97
2023-03-18T01:34:01.344Z,100463.00
2023-03-18T01:36:27.771Z,100459.41
2023-03-18T01:38:54.255Z,100461.13
2023-03-18T01:41:20.678Z,100461.13
2023-03-18T01:43:47.079Z,100463.69
2023-03-18T01:46:38.839Z,100456.53
2023-03-18T01:49:18.182Z,100452.06
2023-03-18T01:52:21.704Z,100460.91
2023-03-18T01:55:06.578Z,100457.34
2023-03-18T01:57:33.027Z,100459.91
2023-03-18T01:59:59.495Z,100463.50
2023-03-18T02:02:26.158Z,100470.44
2023-03-18T02:04:54.406Z,100476.56
2023-03-18T02:07:31.276Z,100473.06
2023-03-18T02:10:00.137Z,100474.81
2023-03-18T02:12:29.058Z,100473.94
2023-03-18T02:14:55.498Z,100469.47
2023-03-18T02:17:24.323Z,100479.22
2023-03-18T02:19:59.592Z,100477.47
2023-03-18T02:22:31.353Z,100486.34
2023-03-18T02:25:16.820Z,100491.88
2023-03-18T02:27:48.884Z,100489.56
2023-03-18T02:30:29.684Z,100487.03
2023-03-18T02:32:56.576Z,100486.44
2023-03-18T02:35:23.175Z,100488.44
2023-03-18T02:37:49.637Z,100486.75
2023-03-18T02:40:17.299Z,100486.84
2023-03-18T02:42:44.294Z,100480.72
2023-03-18T02:45:17.167Z,100488.03
2023-03-18T02:47:43.612Z,100487.25
2023-03-18T02:50:10.021Z,100485.69
2023-03-18T02:52:36.456Z,100492.06
2023-03-18T02:55:02.913Z,100489.44
2023-03-18T02:57:29.330Z,100496.59
2023-03-18T02:59:55.770Z,100483.44
2023-03-18T03:02:22.283Z,100482.63
2023-03-18T03:04:48.718Z,100485.38
2023-03-18T03:07:15.130Z,100493.53
2023-03-18T03:09:41.518Z,100492.66
2023-03-18T03:12:08.030Z,100487.53
2023-03-18T03:14:34.482Z,100490.34
2023-03-18T03:17:00.896Z,100487.88
2023-03-18T03:19:27.347Z,100481.91
2023-03-18T03:21:53.747Z,100489.09
2023-03-18T03:24:20.149Z,100490.88
2023-03-18T03:26:46.542Z,100498.16
2023-03-18T03:29:12.985Z,100495.66
2023-03-18T03:31:39.385Z,100498.38
2023-03-18T03:34:05.990Z,100497.56
2023-03-18T03:36:32.507Z,100498.47
2023-03-18T03:38:58.908Z,100481.75
2023-03-18T03:41:25.350Z,100476.47
2023-03-18T03:43:51.854Z,100471.22
2023-03-18T03:46:18.320Z,100474.81
2023-03-18T03:48:44.743Z,100483.72
2023-03-18T03:51:11.178Z,100475.72
2023-03-18T03:53:37.607Z,100477.56
2023-03-18T03:56:04.263Z,100481.78
2023-03-18T03:58:30.671Z,100485.44
2023-03-18T04:00:57.082Z,100493.47
2023-03-18T04:03:23.474Z,100494.44
2023-03-18T04:05:49.942Z,100497.06
2023-03-18T04:08:16.340Z,100494.41
2023-03-18T04:10:42.793Z,100499.84
2023-03-18T04:13:09.186Z,100501.69
2023-03-18T04:15:35.612Z,100500.78
2023-03-18T04:18:02.025Z,100495.53
2023-03-18T04:20:28.473Z,100501.75
2023-03-18T04:22:54.906Z,100509.69
2023-03-18T04:25:21.295Z,100512.31
2023-03-18T04:27:47.724Z,100511.44
2023-03-18T04:30:14.260Z,100509.53
2023-03-18T04:32:40.758Z,100506.84
2023-03-18T04:35:07.437Z,100505.09
2023-03-18T04:37:36.090Z,100513.06
2023-03-18T04:40:04.699Z,100502.34
2023-03-18T04:42:31.298Z,100498.81
2023-03-18T04:44:57.681Z,100500.66
2023-03-18T04:47:24.097Z,100500.66
2023-03-18T04:49:50.503Z,100503.16
2023-03-18T04:52:16.930Z,100510.34
2023-03-18T04:54:43.319Z,100514.81
2023-03-18T04:57:09.886Z,100520.88
2023-03-18T04:59:36.321Z,100513.72
2023-03-18T05:02:02.768Z,100525.31
2023-03-18T05:04:29.180Z,100533.19
2023-03-18T05:06:55.591Z,100535.03
2023-03-18T05:09:22.013Z,100530.53
2023-03-18T05:11:48.479Z,100538.44
2023-03-18T05:14:14.852Z,100518.06
2023-03-18T05:16:41.400Z,100527.03
2023-03-18T05:19:07.953Z,100523.63
2023-03-18T05:21:34.356Z,100525.28
2023-03-18T05:24:00.761Z,100520.88
2023-03-18T05:26:27.246Z,100524.50
2023-03-18T05:28:53.686Z,100525.38
2023-03-18T05:31:20.167Z,100525.47
2023-03-18T05:33:46.638Z,100524.53
2023-03-18T05:36:13.068Z,100526.38
2023-03-18T05:38:39.536Z,100529.19
2023-03-18T05:41:06.060Z,100529.91
2023-03-18T05:43:32.502Z,100530.75
2023-03-18T05:45:58.984Z,100538.75
2023-03-18T05:48:25.396Z,100536.03
2023-03-18T05:50:52.081Z,100542.28
2023-03-18T05:53:18.519Z,100548.53
2023-03-18T05:55:45.025Z,100552.13
2023-03-18T05:58:11.431Z,100557.44
2023-03-18T06:00:38.152Z,100552.13
2023-03-18T06:03:04.649Z,100562.75
2023-03-18T06:05:31.624Z,100568.06
2023-03-18T06:07:58.340Z,100569.03
2023-03-18T06:10:25.248Z,100564.63
2023-03-18T06:12:51.874Z,100571.69
2023-03-18T06:15:18.435Z,100572.47
2023-03-18T06:17:44.852Z,100571.59
2023-03-18T06:20:11.862Z,100566.28
2023-03-18T06:22:38.683Z,100565.19
2023-03-18T06:25:05.836Z,100568.63
2023-03-18T06:27:32.270Z,100568.63
2023-03-18T06:29:58.696Z,100571.28
2023-03-18T06:32:25.131Z,100575.66
2023-03-18T06:34:51.606Z,100578.28
2023-03-18T06:37:18.008Z,100576.34
2023-03-18T06:39:44.411Z,100573.66
2023-03-18T06:42:10.856Z,100569.13
2023-03-18T06:44:37.291Z,100574.56
2023-03-18T06:47:03.716Z,100568.31
2023-03-18T06:49:30.179Z,100568.16
2023-03-18T06:51:56.610Z,100577.00
2023-03-18T06:54:23.005Z,100582.09
2023-03-18T06:56:49.447Z,100594.38
2023-03-18T06:59:15.842Z,100609.22
2023-03-18T07:01:42.292Z,100598.28
2023-03-18T07:04:08.838Z,100601.66
2023-03-18T07:06:35.281Z,100606.78
2023-03-18T07:09:01.709Z,100616.25
2023-03-18T07:11:28.127Z,100621.38
2023-03-18T07:13:54.536Z,100621.09
2023-03-18T07:16:20.998Z,100629.09
2023-03-18T07:18:47.465Z,100626.38
2023-03-18T07:21:13.883Z,100638.91
2023-03-18T07:23:40.337Z,100630.09
2023-03-18T07:26:07.071Z,100639.84
2023-03-18T07:28:33.514Z,100632.94
2023-03-18T07:31:00.269Z,100640.13
2023-03-18T07:33:26.722Z,100645.22
2023-03-18T07:35:53.116Z,100654.00
2023-03-18T07:38:19.620Z,100653.09
2023-03-18T07:40:46.006Z,100654.84
2023-03-18T07:43:12.423Z,100658.97
2023-03-18T07:45:38.908Z,100655.47
2023-03-18T07:48:05.426Z,100657.22
2023-03-18T07:50:31.839Z,100658.03
2023-03-18T07:52:58.329Z,100660.72
2023-03-18T07:55:24.737Z,100665.06
2023-03-18T07:57:51.174Z,100657.06
2023-03-18T08:00:18.069Z,100665.94
2023-03-18T08:02:44.567Z,100668.66
2023-03-18T08:05:11.075Z,100666.81
2023-03-18T08:07:37.557Z,100667.56
2023-03-18T08:10:04.238Z,100674.59
2023-03-18T08:12:41.647Z,100671.94
2023-03-18T08:15:18.297Z,100679.13
2023-03-18T08:17:44.730Z,100683.38
2023-03-18T08:20:11.874Z,100688.59
2023-03-18T08:22:38.300Z,100687.63
2023-03-18T08:25:04.956Z,100691.16
2023-03-18T08:27:31.454Z,100694.66
2023-03-18T08:29:57.895Z,100691.97
2023-03-18T08:32:24.437Z,100700.81
2023-03-18T08:34:50.974Z,100698.16
2023-03-18T08:37:17.390Z,100704.31
2023-03-18T08:39:43.797Z,100702.44
2023-03-18T08:42:10.494Z,100714.88
2023-03-18T08:44:36.954Z,100712.19
2023-03-18T08:47:03.394Z,100732.88
2023-03-18T08:49:29.820Z,100729.38
2023-03-18T08:51:56.292Z,100730.34
2023-03-18T08:54:22.694Z,100736.56
2023-03-18T08:56:49.094Z,100739.09
2023-03-18T08:59:15.540Z,100740.06
2023-03-18T09:01:42.014Z,100749.97
2023-03-18T09:04:08.465Z,100745.59
2023-03-18T09:06:34.849Z,100743.13
2023-03-18T09:09:01.317Z,100748.72
2023-03-18T09:11:27.800Z,100745.19
2023-03-18T09:13:54.263Z,100745.34
2023-03-18T09:16:20.693Z,100749.84
2023-03-18T09:18:48.858Z,100751.69
2023-03-18T09:21:16.499Z,100763.31
2023-03-18T09:23:42.992Z,100764.13
2023-03-18T09:26:09.427Z,100765.88
2023-03-18T09:28:35.877Z,100763.09
2023-03-18T09:31:02.327Z,100769.03
2023-03-18T09:33:28.769Z,100768.06
2023-03-18T09:35:55.200Z,100775.16
2023-03-18T09:38:21.620Z,100779.63
2023-03-18T09:41:01.907Z,100770.84
2023-03-18T09:43:56.155Z,100777.97
2023-03-18T09:46:31.821Z,100775.25
2023-03-18T09:49:05.425Z,100776.03
2023-03-18T09:51:41.012Z,100780.13
2023-03-18T09:54:07.276Z,100781.69
2023-03-18T09:56:34.938Z,100783.50
2023-03-18T09:59:02.098Z,100780.72
2023-03-18T10:01:28.584Z,100784.72
2023-03-18T10:04:13.644Z,100784.94
2023-03-18T10:06:40.652Z,100785.44
2023-03-18T10:09:17.053Z,100786.78
2023-03-18T10:11:48.055Z,100787.72
2023-03-18T10:14:26.623Z,100795.13
2023-03-18T10:17:08.262Z,100787.41
2023-03-18T10:19:34.823Z,100788.44
2023-03-18T10:22:08.235Z,100792.66
2023-03-18T10:24:42.297Z,100789.81
2023-03-18T10:27:18.088Z,100785.97
2023-03-18T10:29:54.931Z,100787.28
2023-03-18T10:32:50.036Z,100791.84
2023-03-18T10:35:40.456Z,100782.25
2023-03-18T10:38:29.551Z,100783.94
2023-03-18T10:40:55.979Z,100786.06
2023-03-18T10:43:25.068Z,100779.22
2023-03-18T10:46:02.443Z,100783.38
2023-03-18T10:48:53.088Z,100797.50
2023-03-18T10:51:21.443Z,100793.97
2023-03-18T10:54:49.525Z,100801.00
2023-03-18T10:57:16.562Z,100806.69
2023-03-18T10:59:43.766Z,100809.19
2023-03-18T11:02:25.734Z,100802.88
2023-03-18T11:04:54.138Z,100810.72
2023-03-18T11:07:25.082Z,100814.06
2023-03-18T11:09:51.550Z,100818.09
2023-03-18T11:12:22.671Z,100818.16
2023-03-18T11:14:49.733Z,100828.69
2023-03-18T11:17:32.199Z,100823.09
2023-03-18T11:20:05.879Z,100819.63
2023-03-18T11:22:32.378Z,100818.41
2023-03-18T11:25:18.061Z,100824.84
2023-03-18T11:27:48.578Z,100813.25
2023-03-18T11:30:40.567Z,100825.28
2023-03-18T11:33:06.034Z,100822.00
2023-03-18T11:35:53.234Z,100814.22
2023-03-18T11:38:19.635Z,100822.63
2023-03-18T11:40:46.090Z,100815.03
2023-03-18T11:43:20.940Z,100807.84
2023-03-18T11:46:13.737Z,100817.13
2023-03-18T11:48:41.217Z,100815.94
2023-03-18T11:51:29.429Z,100811.47
2023-03-18T11:54:17.280Z,100817.44
2023-03-18T11:56:45.091Z,100823.25
2023-03-18T11:59:27.509Z,100823.84
2023-03-18T12:02:22.368Z,100823.78
2023-03-18T12:05:06.387Z,100833.41
2023-03-18T12:08:11.080Z,100826.88
2023-03-18T12:10:40.034Z,100822.56
2023-03-18T12:13:27.879Z,100831.59
2023-03-18T12:16:16.825Z,100820.97
2023-03-18T12:19:02.014Z,100826.91
2023-03-18T12:21:47.529Z,100828.59
2023-03-18T12:24:16.916Z,100828.00
2023-03-18T12:26:51.253Z,100827.72
2023-03-18T12:29:36.162Z,100839.91
2023-03-18T12:32:27.047Z,100837.72
2023-03-18T12:35:16.010Z,100841.41
2023-03-18T12:37:54.590Z,100837.53
2023-03-18T12:40:38.717Z,100831.53
2023-03-18T12:43:40.187Z,100836.25
2023-03-18T12:46:24.744Z,100827.88
2023-03-18T12:49:15.733Z,100830.06
2023-03-18T12:51:49.925Z,100836.88
2023-03-18T12:54:25.991Z,100828.41
2023-03-18T12:57:02.308Z,100828.50
2023-03-18T12:59:48.017Z,100828.16
2023-03-18T13:02:38.938Z,100826.75
2023-03-18T13:05:07.546Z,100814.84
2023-03-18T13:07:43.910Z,100822.91
2023-03-18T13:10:19.934Z,100823.94
2023-03-18T13:12:46.655Z,100830.88
2023-03-18T13:15:32.265Z,100830.22
2023-03-18T13:18:24.428Z,100828.47
2023-03-18T13:20:52.731Z,100834.72
2023-03-18T13:23:29.304Z,100822.41
2023-03-18T13:26:25.000Z,100836.69
2023-03-18T13:29:02.514Z,100830.63
2023-03-18T13:32:11.237Z,100833.72
2023-03-18T13:34:49.532Z,100840.72
2023-03-18T13:37:50.863Z,100838.41
2023-03-18T13:40:42.750Z,100836.75
2023-03-18T13:43:13.026Z,100839.97
2023-03-18T13:45:44.671Z,100840.94
2023-03-18T13:48:16.577Z,100837.06
2023-03-18T13:50:43.784Z,100845.75
2023-03-18T13:53:34.072Z,100846.50
2023-03-18T13:56:01.878Z,100845.16
2023-03-18T13:58:29.793Z,100839.34
2023-03-18T14:00:58.439Z,100832.84
2023-03-18T14:03:31.616Z,100830.31
2023-03-18T14:06:07.346Z,100839.59
2023-03-18T14:08:39.882Z,100843.72
2023-03-18T14:11:45.441Z,100843.78
2023-03-18T14:15:00.047Z,100842.59
2023-03-18T14:17:32.417Z,100842.28
2023-03-18T14:20:04.171Z,100839.91
2023-03-18T14:22:37.639Z,100845.50
2023-03-18T14:25:12.990Z,100841.31
2023-03-18T14:27:55.194Z,100845.09
2023-03-18T14:30:36.917Z,100829.28
2023-03-18T14:33:04.359Z,100832.91
2023-03-18T14:35:49.789Z,100831.31
2023-03-18T14:38:31.875Z,100837.00
2023-03-18T14:40:58.643Z,100831.50
2023-03-18T14:43:29.600Z,100831.50
2023-03-18T14:46:01.263Z,100833.66
2023-03-18T14:48:29.784Z,100839.28
2023-03-18T14:50:57.147Z,100841.03
2023-03-18T14:53:48.754Z,100830.88
2023-03-18T14:56:25.441Z,100843.56
2023-03-18T14:58:52.416Z,100834.47
2023-03-18T15:01:19.108Z,100840.63
2023-03-18T15:03:47.002Z,100839.91
2023-03-18T15:06:24.138Z,100833.22
2023-03-18T15:08:59.961Z,100834.25
2023-03-18T15:11:26.386Z,100833.19
2023-03-18T15:13:56.871Z,100835.88
2023-03-18T15:16:24.337Z,100846.97
2023-03-18T15:18:55.056Z,100846.41
2023-03-18T15:21:24.309Z,100844.66
2023-03-18T15:23:55.295Z,100843.94
2023-03-18T15:26:28.182Z,100842.78
2023-03-18T15:28:56.459Z,100846.88
2023-03-18T15:31:30.589Z,100856.19
2023-03-18T15:34:17.887Z,100847.41
2023-03-18T15:36:44.984Z,100850.09
2023-03-18T15:39:21.201Z,100846.13
2023-03-18T15:41:53.911Z,100848.41
2023-03-18T15:44:31.132Z,100834.81
2023-03-18T15:47:17.856Z,100842.91
2023-03-18T15:50:19.967Z,100842.50
2023-03-18T15:52:46.681Z,100849.69
2023-03-18T15:55:29.796Z,100852.00
2023-03-18T15:57:57.061Z,100846.00
2023-03-18T16:00:23.758Z,100853.06
2023-03-18T16:02:50.354Z,100855.41
2023-03-18T16:05:26.011Z,100858.03
2023-03-18T16:07:52.694Z,100850.69
2023-03-18T16:10:21.415Z,100851.31
2023-03-18T16:12:47.972Z,100845.50
2023-03-18T16:15:16.396Z,100855.09
2023-03-18T16:17:42.841Z,100846.84
2023-03-18T16:20:23.467Z,100852.66
2023-03-18T16:22:50.494Z,100855.50
2023-03-18T16:25:16.986Z,100850.31
2023-03-18T16:27:47.390Z,100866.03
2023-03-18T16:30:18.697Z,100867.53
2023-03-18T16:32:45.624Z,100866.97
2023-03-18T16:35:19.671Z,100868.81
2023-03-18T16:37:46.330Z,100870.69
2023-03-18T16:40:19.890Z,100877.81
2023-03-18T16:42:46.367Z,100868.91
2023-03-18T16:45:16.748Z,100870.50
2023-03-18T16:47:44.319Z,100878.47
2023-03-18T16:50:21.597Z,100878.28
2023-03-18T16:52:48.130Z,100874.63
2023-03-18T16:55:15.944Z,100880.50
2023-03-18T16:57:56.343Z,100882.66
2023-03-18T17:00:27.096Z,100883.06
2023-03-18T17:02:53.552Z,100881.69
2023-03-18T17:05:20.130Z,100887.22
2023-03-18T17:07:46.675Z,100883.84
2023-03-18T17:10:17.004Z,100884.31
2023-03-18T17:13:05.391Z,100886.63
2023-03-18T17:15:36.342Z,100883.75
2023-03-18T17:18:06.566Z,100887.88
2023-03-18T17:20:33.432Z,100888.38
2023-03-18T17:23:00.364Z,100885.19
2023-03-18T17:25:27.689Z,100887.38
2023-03-18T17:27:58.401Z,100890.38
2023-03-18T17:30:32.096Z,100896.97
2023-03-18T17:32:58.625Z,100901.72
2023-03-18T17:35:25.306Z,100898.41
2023-03-18T17:37:51.752Z,100903.06
2023-03-18T17:40:19.041Z,100908.53
2023-03-18T17:42:46.039Z,100911.38
2023-03-18T17:45:24.591Z,100912.34
2023-03-18T17:47:51.005Z,100919.66
2023-03-18T17:50:17.582Z,100916.25
2023-03-18T17:52:44.936Z,100920.78
2023-03-18T17:55:16.191Z,100920.19
2023-03-18T17:57:43.242Z,100923.81
2023-03-18T18:00:20.751Z,100924.03
2023-03-18T18:02:48.302Z,100922.41
2023-03-18T18:05:16.172Z,100930.59
2023-03-18T18:07:43.120Z,100921.78
2023-03-18T18:10:10.323Z,100934.38
2023-03-18T18:12:36.753Z,100919.56
2023-03-18T18:15:03.281Z,100930.16
2023-03-18T18:17:29.690Z,100932.06
2023-03-18T18:19:56.110Z,100934.84
2023-03-18T18:22:22.581Z,100928.75
2023-03-18T18:24:48.995Z,100934.97
2023-03-18T18:27:15.552Z,100936.88
2023-03-18T18:29:42.118Z,100941.28
2023-03-18T18:32:08.546Z,100941.34
2023-03-18T18:34:35.001Z,100942.13
2023-03-18T18:37:01.793Z,100945.53
2023-03-18T18:39:28.307Z,100945.44
2023-03-18T18:41:54.764Z,100945.34
2023-03-18T18:44:21.303Z,100945.38
2023-03-18T18:46:47.755Z,100947.19
2023-03-18T18:49:22.764Z,100948.06
2023-03-18T18:51:53.059Z,100949.03
2023-03-18T18:54:19.491Z,100949.00
2023-03-18T18:56:45.902Z,100954.44
2023-03-18T18:59:22.634Z,100962.53
2023-03-18T19:01:52.225Z,100959.03
2023-03-18T19:04:18.504Z,100965.41
2023-03-18T19:06:44.916Z,100960.16
2023-03-18T19:09:27.080Z,100961.91
2023-03-18T19:11:53.660Z,100954.81
2023-03-18T19:14:22.224Z,100951.34
2023-03-18T19:16:48.624Z,100943.50
2023-03-18T19:19:19.952Z,100940.00
2023-03-18T19:21:46.389Z,100948.25
2023-03-18T19:24:26.214Z,100946.59
2023-03-18T19:26:54.453Z,100934.31
2023-03-18T19:29:20.881Z,100931.78
2023-03-18T19:31:47.343Z,100941.63
2023-03-18T19:34:17.666Z,100940.94
2023-03-18T19:36:44.077Z,100935.78
2023-03-18T19:39:13.759Z,100937.75
2023-03-18T19:41:40.046Z,100942.34
2023-03-18T19:44:20.392Z,100939.00
2023-03-18T19:46:47.081Z,100929.41
2023-03-18T19:49:27.254Z,100937.47
2023-03-18T19:51:54.256Z,100937.56
2023-03-18T19:54:30.830Z,100937.63
2023-03-18T19:56:57.973Z,100941.25
2023-03-18T19:59:24.788Z,100941.34
2023-03-18T20:01:51.345Z,100942.25
2023-03-18T20:04:18.923Z,100951.22
2023-03-18T20:06:45.670Z,100951.22
2023-03-18T20:09:12.071Z,100948.66
2023-03-18T20:11:38.536Z,100957.56
2023-03-18T20:14:20.051Z,100956.75
2023-03-18T20:16:46.582Z,100957.63
2023-03-18T20:19:13.216Z,100969.13
2023-03-18T20:21:39.674Z,100968.22
2023-03-18T20:24:07.715Z,100975.38
2023-03-18T20:26:34.311Z,100977.13
2023-03-18T20:29:00.833Z,100981.59
2023-03-18T20:31:27.303Z,100981.59
2023-03-18T20:33:53.794Z,100986.94
2023-03-18T20:36:20.373Z,100986.06
2023-03-18T20:38:48.034Z,100987.84
2023-03-18T20:41:18.109Z,100984.31
2023-03-18T20:43:44.733Z,100990.44
2023-03-18T20:46:12.871Z,100982.47
2023-03-18T20:48:39.341Z,100984.19
2023-03-18T20:51:21.032Z,100988.63
2023-03-18T20:53:48.158Z,100982.34
2023-03-18T20:56:14.650Z,100981.44
2023-03-18T20:58:41.109Z,100980.53
2023-03-18T21:01:12.310Z,100977.84
2023-03-18T21:03:38.779Z,100983.06
2023-03-18T21:06:05.424Z,100985.69
2023-03-18T21:08:31.929Z,100979.44
2023-03-18T21:11:01.537Z,100984.69
2023-03-18T21:13:29.727Z,100986.41
2023-03-18T21:15:56.673Z,100981.94
2023-03-18T21:18:23.175Z,100979.19
2023-03-18T21:20:49.865Z,100980.81
2023-03-18T21:23:24.216Z,100973.69
2023-03-18T21:25:50.781Z,100972.75
2023-03-18T21:28:18.493Z,100970.97
2023-03-18T21:30:47.228Z,100967.38
2023-03-18T21:33:20.748Z,100960.94
2023-03-18T21:35:47.544Z,100962.50
2023-03-18T21:38:14.032Z,100964.16
2023-03-18T21:40:40.456Z,100966.81
2023-03-18T21:43:20.577Z,100968.53
2023-03-18T21:45:47.052Z,100968.56
2023-03-18T21:48:13.472Z,100965.03
2023-03-18T21:50:39.948Z,100962.41
2023-03-18T21:53:09.012Z,100954.59
2023-03-18T21:55:35.843Z,100958.31
2023-03-18T21:58:02.448Z,100959.38
2023-03-18T22:00:28.919Z,100963.97
2023-03-18T22:02:55.372Z,100958.72
2023-03-18T22:05:22.579Z,100954.34
2023-03-18T22:07:49.392Z,100962.25
2023-03-18T22:10:22.529Z,100959.41
2023-03-18T22:12:49.160Z,100957.41
2023-03-18T22:15:24.739Z,100941.28
2023-03-18T22:17:51.388Z,100953.78
2023-03-18T22:20:18.103Z,100959.94
2023-03-18T22:22:44.534Z,100957.28
2023-03-18T22:25:36.662Z,100950.19
2023-03-18T22:28:03.179Z,100948.50
2023-03-18T22:30:30.498Z,100943.25
2023-03-18T22:32:57.401Z,100928.91
2023-03-18T22:35:25.270Z,100934.22
2023-03-18T22:37:54.738Z,100937.91
2023-03-18T22:40:22.097Z,100937.00
2023-03-18T22:42:53.073Z,100944.00
2023-03-18T22:45:26.983Z,100944.75
2023-03-18T22:47:57.456Z,100945.63
2023-03-18T22:50:24.649Z,100948.16
2023-03-18T22:52:53.134Z,100938.41
2023-03-18T22:55:24.137Z,100937.53
2023-03-18T22:57:50.652Z,100942.16
2023-03-18T23:00:22.093Z,100940.53
2023-03-18T23:02:49.687Z,100946.13
2023-03-18T23:05:17.319Z,100938.34
2023-03-18T23:07:43.827Z,100935.78
2023-03-18T23:10:10.912Z,100928.91
2023-03-18T23:12:37.404Z,100934.53
2023-03-18T23:15:04.531Z,100940.06
2023-03-18T23:17:30.958Z,100933.25
2023-03-18T23:19:57.504Z,100929.06
2023-03-18T23:22:25.172Z,100932.00
2023-03-18T23:24:51.576Z,100932.22
2023-03-18T23:27:18.063Z,100925.19
2023-03-18T23:29:44.467Z,100940.50
2023-03-18T23:32:10.967Z,100932.63
2023-03-18T23:34:37.448Z,100936.28
2023-03-18T23:37:03.882Z,100931.13
2023-03-18T23:39:30.265Z,100934.72
2023-03-18T23:41:56.774Z,100935.59
2023-03-18T23:44:23.244Z,100933.81
2023-03-18T23:46:49.654Z,100924.84
2023-03-18T23:49:16.042Z,100924.00
2023-03-18T23:51:44.978Z,100921.34
2023-03-18T23:54:11.485Z,100923.19
2023-03-18T23:56:37.883Z,100923.31
2023-03-18T23:59:04.327Z,100925.09
